sensor_id;sensor_type;location;lat;lon;timestamp;pressure;altitude;pressure_sealevel;temperature;humidity
2549;BME280;1284;53.520;10.248;2024-02-23T00:01:32;97245.00;;;12.61;72.45
2549;BME280;1284;53.520;10.248;2024-02-23T00:03:57;97257.13;;;12.56;70.96
2549;BME280;1284;53.520;10.248;2024-02-23T00:06:23;97236.13;;;12.60;69.78
2549;BME280;1284;53.520;10.248;2024-02-23T00:08:55;97256.84;;;12.54;71.05
2549;BME280;1284;53.520;10.248;2024-02-23T00:11:21;97264.06;;;12.21;70.17
2549;BME280;1284;53.520;10.248;2024-02-23T00:13:47;97264.94;;;12.18;70.17
2549;BME280;1284;53.520;10.248;2024-02-23T00:16:12;97274.34;;;12.14;71.67
2549;BME280;1284;53.520;10.248;2024-02-23T00:18:38;97285.63;;;12.21;71.50
2549;BME280;1284;53.520;10.248;2024-02-23T00:21:04;97295.47;;;12.06;70.94
2549;BME280;1284;53.520;10.248;2024-02-23T00:23:29;97279.28;;;11.88;70.47
2549;BME280;1284;53.520;10.248;2024-02-23T00:25:55;97300.25;;;11.93;68.68
2549;BME280;1284;53.520;10.248;2024-02-23T00:28:21;97312.03;;;11.68;68.23
2549;BME280;1284;53.520;10.248;2024-02-23T00:30:46;92237.69;;;11.66;100.00
2549;BME280;1284;53.520;10.248;2024-02-23T00:33:12;97310.13;;;11.56;66.35
2549;BME280;1284;53.520;10.248;2024-02-23T00:35:37;97314.03;;;11.55;67.40
2549;BME280;1284;53.520;10.248;2024-02-23T00:38:03;97302.78;;;11.88;65.27
2549;BME280;1284;53.520;10.248;2024-02-23T00:40:28;97316.88;;;11.83;64.72
2549;BME280;1284;53.520;10.248;2024-02-23T00:42:54;97314.06;;;11.64;65.27
2549;BME280;1284;53.520;10.248;2024-02-23T00:45:20;97290.03;;;11.79;65.22
2549;BME280;1284;53.520;10.248;2024-02-23T00:47:45;97294.69;;;11.88;65.99
2549;BME280;1284;53.520;10.248;2024-02-23T00:50:12;97296.38;;;11.94;65.75
2549;BME280;1284;53.520;10.248;2024-02-23T00:52:37;97315.91;;;11.46;67.76
2549;BME280;1284;53.520;10.248;2024-02-23T00:55:03;97313.00;;;11.62;67.72
2549;BME280;1284;53.520;10.248;2024-02-23T00:57:29;97320.41;;;11.70;67.87
2549;BME280;1284;53.520;10.248;2024-02-23T00:59:58;97331.19;;;11.40;69.21
2549;BME280;1284;53.520;10.248;2024-02-23T01:02:23;97321.72;;;11.66;67.04
2549;BME280;1284;53.520;10.248;2024-02-23T01:04:49;97355.59;;;11.45;68.88
2549;BME280;1284;53.520;10.248;2024-02-23T01:07:14;97380.41;;;11.40;70.45
2549;BME280;1284;53.520;10.248;2024-02-23T01:09:40;97400.03;;;11.41;72.11
2549;BME280;1284;53.520;10.248;2024-02-23T01:12:06;97436.66;;;11.38;76.17
2549;BME280;1284;53.520;10.248;2024-02-23T01:14:31;97463.09;;;11.09;82.14
2549;BME280;1284;53.520;10.248;2024-02-23T01:16:57;97459.22;;;10.63;85.92
2549;BME280;1284;53.520;10.248;2024-02-23T01:19:22;97469.34;;;9.96;88.91
2549;BME280;1284;53.520;10.248;2024-02-23T01:21:49;97460.19;;;9.94;89.40
2549;BME280;1284;53.520;10.248;2024-02-23T01:24:21;97477.81;;;9.95;89.38
2549;BME280;1284;53.520;10.248;2024-02-23T01:26:46;97468.28;;;9.94;89.65
2549;BME280;1284;53.520;10.248;2024-02-23T01:29:11;97469.00;;;9.69;89.97
2549;BME280;1284;53.520;10.248;2024-02-23T01:31:37;97497.72;;;9.85;89.61
2549;BME280;1284;53.520;10.248;2024-02-23T01:34:03;97480.47;;;9.70;88.75
2549;BME280;1284;53.520;10.248;2024-02-23T01:36:28;97484.22;;;9.60;89.60
2549;BME280;1284;53.520;10.248;2024-02-23T01:38:54;97489.69;;;9.28;91.34
2549;BME280;1284;53.520;10.248;2024-02-23T01:41:20;97503.06;;;9.44;91.13
2549;BME280;1284;53.520;10.248;2024-02-23T01:43:45;97514.38;;;9.51;90.76
2549;BME280;1284;53.520;10.248;2024-02-23T01:46:11;97524.78;;;9.78;88.72
2549;BME280;1284;53.520;10.248;2024-02-23T01:48:36;97534.59;;;9.56;89.94
2549;BME280;1284;53.520;10.248;2024-02-23T01:51:02;97541.09;;;9.42;90.35
2549;BME280;1284;53.520;10.248;2024-02-23T01:53:28;97549.63;;;9.53;89.48
2549;BME280;1284;53.520;10.248;2024-02-23T01:55:54;97565.03;;;9.37;89.43
2549;BME280;1284;53.520;10.248;2024-02-23T01:58:20;97564.78;;;9.31;90.27
2549;BME280;1284;53.520;10.248;2024-02-23T02:00:46;97578.00;;;9.09;90.23
2549;BME280;1284;53.520;10.248;2024-02-23T02:03:11;97587.19;;;9.25;89.81
2549;BME280;1284;53.520;10.248;2024-02-23T02:05:37;97602.69;;;9.49;89.00
2549;BME280;1284;53.520;10.248;2024-02-23T02:08:03;97617.56;;;9.38;88.70
2549;BME280;1284;53.520;10.248;2024-02-23T02:10:29;97614.94;;;9.50;88.43
2549;BME280;1284;53.520;10.248;2024-02-23T02:12:55;97631.13;;;9.63;87.92
2549;BME280;1284;53.520;10.248;2024-02-23T02:15:20;97647.75;;;9.42;88.04
2549;BME280;1284;53.520;10.248;2024-02-23T02:17:47;97645.31;;;9.63;86.60
2549;BME280;1284;53.520;10.248;2024-02-23T02:20:13;97662.09;;;9.51;86.70
2549;BME280;1284;53.520;10.248;2024-02-23T02:22:39;97646.81;;;9.64;86.24
2549;BME280;1284;53.520;10.248;2024-02-23T02:25:05;97663.50;;;9.72;86.01
2549;BME280;1284;53.520;10.248;2024-02-23T02:27:32;97677.03;;;9.68;85.31
2549;BME280;1284;53.520;10.248;2024-02-23T02:29:57;97674.97;;;9.60;85.43
2549;BME280;1284;53.520;10.248;2024-02-23T02:32:23;97682.09;;;9.34;85.88
2549;BME280;1284;53.520;10.248;2024-02-23T02:34:49;97684.75;;;9.18;86.08
2549;BME280;1284;53.520;10.248;2024-02-23T02:37:14;97706.75;;;9.29;85.04
2549;BME280;1284;53.520;10.248;2024-02-23T02:39:40;97725.19;;;9.11;84.47
2549;BME280;1284;53.520;10.248;2024-02-23T02:42:05;97732.59;;;9.23;84.14
2549;BME280;1284;53.520;10.248;2024-02-23T02:44:31;97728.31;;;9.26;84.03
2549;BME280;1284;53.520;10.248;2024-02-23T02:46:57;97758.34;;;9.21;84.34
2549;BME280;1284;53.520;10.248;2024-02-23T02:49:23;97757.28;;;9.34;83.91
2549;BME280;1284;53.520;10.248;2024-02-23T02:51:48;97764.09;;;9.39;84.12
2549;BME280;1284;53.520;10.248;2024-02-23T02:54:13;97777.44;;;9.42;83.24
2549;BME280;1284;53.520;10.248;2024-02-23T02:56:43;97777.34;;;9.46;83.32
2549;BME280;1284;53.520;10.248;2024-02-23T02:59:09;97782.34;;;9.28;84.33
2549;BME280;1284;53.520;10.248;2024-02-23T03:01:35;97781.41;;;9.18;85.64
2549;BME280;1284;53.520;10.248;2024-02-23T03:04:01;97791.34;;;9.37;84.03
2549;BME280;1284;53.520;10.248;2024-02-23T03:06:26;97805.47;;;9.05;85.65
2549;BME280;1284;53.520;10.248;2024-02-23T03:08:52;97806.38;;;9.35;84.73
2549;BME280;1284;53.520;10.248;2024-02-23T03:11:17;97813.63;;;9.18;84.57
2549;BME280;1284;53.520;10.248;2024-02-23T03:13:43;97824.97;;;9.26;84.10
2549;BME280;1284;53.520;10.248;2024-02-23T03:16:15;97831.59;;;9.01;84.99
2549;BME280;1284;53.520;10.248;2024-02-23T03:18:43;97843.84;;;9.02;83.71
2549;BME280;1284;53.520;10.248;2024-02-23T03:21:09;97843.13;;;8.79;85.65
2549;BME280;1284;53.520;10.248;2024-02-23T03:23:35;97844.03;;;8.72;86.29
2549;BME280;1284;53.520;10.248;2024-02-23T03:26:02;97847.03;;;8.97;85.18
2549;BME280;1284;53.520;10.248;2024-02-23T03:28:27;97849.03;;;8.51;86.78
2549;BME280;1284;53.520;10.248;2024-02-23T03:30:53;97851.28;;;8.52;85.86
2549;BME280;1284;53.520;10.248;2024-02-23T03:33:19;97854.53;;;8.63;84.68
2549;BME280;1284;53.520;10.248;2024-02-23T03:35:44;97866.72;;;8.68;83.88
2549;BME280;1284;53.520;10.248;2024-02-23T03:38:10;97875.78;;;8.54;83.64
2549;BME280;1284;53.520;10.248;2024-02-23T03:40:35;97877.09;;;8.66;84.05
2549;BME280;1284;53.520;10.248;2024-02-23T03:43:01;97882.13;;;8.41;85.72
2549;BME280;1284;53.520;10.248;2024-02-23T03:45:27;97893.66;;;8.84;84.33
2549;BME280;1284;53.520;10.248;2024-02-23T03:47:53;97895.09;;;8.88;83.76
2549;BME280;1284;53.520;10.248;2024-02-23T03:50:19;97896.38;;;8.61;84.43
2549;BME280;1284;53.520;10.248;2024-02-23T03:52:45;97896.00;;;8.82;83.26
2549;BME280;1284;53.520;10.248;2024-02-23T03:55:10;97905.38;;;8.93;82.94
2549;BME280;1284;53.520;10.248;2024-02-23T03:57:36;97912.41;;;9.07;82.55
2549;BME280;1284;53.520;10.248;2024-02-23T04:00:03;97918.09;;;8.89;82.42
2549;BME280;1284;53.520;10.248;2024-02-23T04:02:38;97920.78;;;8.66;83.36
2549;BME280;1284;53.520;10.248;2024-02-23T04:05:04;97927.97;;;8.73;83.68
2549;BME280;1284;53.520;10.248;2024-02-23T04:07:29;97942.41;;;8.79;82.96
2549;BME280;1284;53.520;10.248;2024-02-23T04:09:54;97943.25;;;8.76;81.56
2549;BME280;1284;53.520;10.248;2024-02-23T04:12:21;97960.09;;;8.53;83.37
2549;BME280;1284;53.520;10.248;2024-02-23T04:14:47;97968.88;;;8.54;82.43
2549;BME280;1284;53.520;10.248;2024-02-23T04:17:13;97961.88;;;8.60;82.81
2549;BME280;1284;53.520;10.248;2024-02-23T04:19:40;97962.88;;;8.46;83.94
2549;BME280;1284;53.520;10.248;2024-02-23T04:22:06;97984.00;;;8.67;82.80
2549;BME280;1284;53.520;10.248;2024-02-23T04:24:34;97993.44;;;8.52;82.89
2549;BME280;1284;53.520;10.248;2024-02-23T04:26:59;97992.16;;;8.60;82.74
2549;BME280;1284;53.520;10.248;2024-02-23T04:29:25;97994.00;;;8.63;82.38
2549;BME280;1284;53.520;10.248;2024-02-23T04:31:50;97990.50;;;8.43;83.16
2549;BME280;1284;53.520;10.248;2024-02-23T04:34:16;98001.44;;;8.29;83.24
2549;BME280;1284;53.520;10.248;2024-02-23T04:36:41;98008.31;;;8.57;82.01
2549;BME280;1284;53.520;10.248;2024-02-23T04:39:07;98007.72;;;8.46;81.85
2549;BME280;1284;53.520;10.248;2024-02-23T04:41:33;98028.53;;;8.35;82.54
2549;BME280;1284;53.520;10.248;2024-02-23T04:43:58;98016.34;;;8.57;81.74
2549;BME280;1284;53.520;10.248;2024-02-23T04:46:26;98022.25;;;8.71;81.40
2549;BME280;1284;53.520;10.248;2024-02-23T04:48:51;98023.28;;;8.54;82.75
2549;BME280;1284;53.520;10.248;2024-02-23T04:51:17;98038.13;;;8.62;82.06
2549;BME280;1284;53.520;10.248;2024-02-23T04:53:42;98035.31;;;8.69;80.86
2549;BME280;1284;53.520;10.248;2024-02-23T04:56:07;72078.50;;;-144.12;100.00
2549;BME280;1284;53.520;10.248;2024-02-23T04:58:33;72078.50;;;-144.12;100.00
2549;BME280;1284;53.520;10.248;2024-02-23T05:00:58;72078.50;;;-144.12;100.00
2549;BME280;1284;53.520;10.248;2024-02-23T05:03:24;72078.50;;;-144.12;100.00
2549;BME280;1284;53.520;10.248;2024-02-23T05:05:49;98035.31;;;8.69;80.86
2549;BME280;1284;53.520;10.248;2024-02-23T05:08:19;98050.63;;;8.95;79.79
2549;BME280;1284;53.520;10.248;2024-02-23T05:10:48;98054.13;;;8.92;79.47
2549;BME280;1284;53.520;10.248;2024-02-23T05:13:14;98063.63;;;8.97;79.43
2549;BME280;1284;53.520;10.248;2024-02-23T05:15:40;98060.88;;;8.77;79.64
2549;BME280;1284;53.520;10.248;2024-02-23T05:18:05;98073.63;;;8.70;79.67
2549;BME280;1284;53.520;10.248;2024-02-23T05:20:31;98070.50;;;8.48;80.70
2549;BME280;1284;53.520;10.248;2024-02-23T05:22:57;98082.22;;;8.31;81.38
2549;BME280;1284;53.520;10.248;2024-02-23T05:25:22;98091.34;;;8.37;80.66
2549;BME280;1284;53.520;10.248;2024-02-23T05:27:48;98087.28;;;8.52;80.02
2549;BME280;1284;53.520;10.248;2024-02-23T05:30:13;98091.66;;;8.69;79.39
2549;BME280;1284;53.520;10.248;2024-02-23T05:32:39;98094.66;;;8.75;78.74
2549;BME280;1284;53.520;10.248;2024-02-23T05:35:05;98099.16;;;8.55;78.77
2549;BME280;1284;53.520;10.248;2024-02-23T05:37:31;98097.47;;;8.64;78.66
2549;BME280;1284;53.520;10.248;2024-02-23T05:39:56;98106.00;;;8.59;78.29
2549;BME280;1284;53.520;10.248;2024-02-23T05:42:25;98119.66;;;8.68;78.23
2549;BME280;1284;53.520;10.248;2024-02-23T05:44:50;98123.69;;;8.53;78.00
2549;BME280;1284;53.520;10.248;2024-02-23T05:47:16;98123.88;;;8.39;79.02
2549;BME280;1284;53.520;10.248;2024-02-23T05:49:42;98117.63;;;8.49;79.42
2549;BME280;1284;53.520;10.248;2024-02-23T05:52:08;98127.69;;;8.38;78.79
2549;BME280;1284;53.520;10.248;2024-02-23T05:54:35;98134.50;;;8.46;78.22
2549;BME280;1284;53.520;10.248;2024-02-23T05:57:00;98146.41;;;8.45;77.55
2549;BME280;1284;53.520;10.248;2024-02-23T05:59:26;98131.75;;;8.53;77.25
2549;BME280;1284;53.520;10.248;2024-02-23T06:01:52;98163.91;;;8.19;78.24
2549;BME280;1284;53.520;10.248;2024-02-23T06:04:22;98156.16;;;8.29;78.78
2549;BME280;1284;53.520;10.248;2024-02-23T06:06:48;98160.69;;;8.35;78.41
2549;BME280;1284;53.520;10.248;2024-02-23T06:09:13;98167.53;;;8.40;77.59
2549;BME280;1284;53.520;10.248;2024-02-23T06:11:39;98176.88;;;8.28;77.60
2549;BME280;1284;53.520;10.248;2024-02-23T06:14:04;98182.59;;;8.30;78.19
2549;BME280;1284;53.520;10.248;2024-02-23T06:16:30;98199.03;;;8.32;78.49
2549;BME280;1284;53.520;10.248;2024-02-23T06:18:55;98201.72;;;8.32;77.37
2549;BME280;1284;53.520;10.248;2024-02-23T06:21:20;98208.94;;;8.35;77.58
2549;BME280;1284;53.520;10.248;2024-02-23T06:23:46;98205.00;;;8.47;76.86
2549;BME280;1284;53.520;10.248;2024-02-23T06:26:12;98204.56;;;8.14;77.97
2549;BME280;1284;53.520;10.248;2024-02-23T06:28:38;98207.34;;;8.41;77.05
2549;BME280;1284;53.520;10.248;2024-02-23T06:31:07;98210.81;;;8.38;77.37
2549;BME280;1284;53.520;10.248;2024-02-23T06:33:32;98222.22;;;8.49;76.34
2549;BME280;1284;53.520;10.248;2024-02-23T06:35:58;98216.53;;;8.44;76.14
2549;BME280;1284;53.520;10.248;2024-02-23T06:38:24;98221.16;;;8.40;76.52
2549;BME280;1284;53.520;10.248;2024-02-23T06:40:49;98225.31;;;8.44;76.50
2549;BME280;1284;53.520;10.248;2024-02-23T06:43:15;98237.47;;;8.52;76.71
2549;BME280;1284;53.520;10.248;2024-02-23T06:45:40;98240.16;;;8.52;76.39
2549;BME280;1284;53.520;10.248;2024-02-23T06:48:06;98230.84;;;8.30;77.67
2549;BME280;1284;53.520;10.248;2024-02-23T06:50:32;98239.97;;;8.36;77.62
2549;BME280;1284;53.520;10.248;2024-02-23T06:52:57;98241.94;;;8.32;78.27
2549;BME280;1284;53.520;10.248;2024-02-23T06:55:23;98250.50;;;8.13;79.10
2549;BME280;1284;53.520;10.248;2024-02-23T06:57:48;98253.31;;;8.43;78.32
2549;BME280;1284;53.520;10.248;2024-02-23T07:00:14;98257.31;;;8.21;79.50
2549;BME280;1284;53.520;10.248;2024-02-23T07:02:40;98270.97;;;8.37;78.58
2549;BME280;1284;53.520;10.248;2024-02-23T07:05:06;98259.53;;;8.33;78.59
2549;BME280;1284;53.520;10.248;2024-02-23T07:07:32;98274.84;;;8.33;78.71
2549;BME280;1284;53.520;10.248;2024-02-23T07:10:02;98258.72;;;8.40;79.50
2549;BME280;1284;53.520;10.248;2024-02-23T07:12:27;98275.66;;;8.63;77.61
2549;BME280;1284;53.520;10.248;2024-02-23T07:14:55;98277.06;;;8.41;78.94
2549;BME280;1284;53.520;10.248;2024-02-23T07:17:21;98271.94;;;8.54;78.34
2549;BME280;1284;53.520;10.248;2024-02-23T07:19:46;98291.63;;;8.44;79.61
2549;BME280;1284;53.520;10.248;2024-02-23T07:22:13;98294.22;;;8.51;79.63
2549;BME280;1284;53.520;10.248;2024-02-23T07:24:42;98299.97;;;8.49;80.13
2549;BME280;1284;53.520;10.248;2024-02-23T07:27:08;98308.44;;;8.48;80.69
2549;BME280;1284;53.520;10.248;2024-02-23T07:29:33;98300.66;;;8.57;81.09
2549;BME280;1284;53.520;10.248;2024-02-23T07:31:58;98298.22;;;8.69;79.22
2549;BME280;1284;53.520;10.248;2024-02-23T07:34:24;98312.31;;;8.80;77.56
2549;BME280;1284;53.520;10.248;2024-02-23T07:36:53;98309.47;;;8.57;78.53
2549;BME280;1284;53.520;10.248;2024-02-23T07:39:20;98320.50;;;8.66;77.59
2549;BME280;1284;53.520;10.248;2024-02-23T07:41:45;98319.31;;;8.67;77.95
2549;BME280;1284;53.520;10.248;2024-02-23T07:44:10;98320.59;;;8.56;77.57
2549;BME280;1284;53.520;10.248;2024-02-23T07:46:36;98327.72;;;8.69;77.75
2549;BME280;1284;53.520;10.248;2024-02-23T07:49:02;98326.41;;;8.88;76.27
2549;BME280;1284;53.520;10.248;2024-02-23T07:51:28;98349.28;;;8.99;75.60
2549;BME280;1284;53.520;10.248;2024-02-23T07:53:54;98334.84;;;8.86;75.19
2549;BME280;1284;53.520;10.248;2024-02-23T07:56:20;98341.06;;;8.80;76.11
2549;BME280;1284;53.520;10.248;2024-02-23T07:58:46;98348.41;;;9.06;75.19
2549;BME280;1284;53.520;10.248;2024-02-23T08:01:12;98353.03;;;9.05;74.72
2549;BME280;1284;53.520;10.248;2024-02-23T08:03:40;98353.81;;;9.02;73.93
2549;BME280;1284;53.520;10.248;2024-02-23T08:06:05;98356.81;;;9.12;74.43
2549;BME280;1284;53.520;10.248;2024-02-23T08:08:31;98356.78;;;9.15;74.98
2549;BME280;1284;53.520;10.248;2024-02-23T08:11:01;98359.97;;;9.37;72.61
2549;BME280;1284;53.520;10.248;2024-02-23T08:13:27;98365.34;;;9.37;72.36
2549;BME280;1284;53.520;10.248;2024-02-23T08:15:52;98375.81;;;9.24;72.56
2549;BME280;1284;53.520;10.248;2024-02-23T08:18:18;98375.50;;;9.19;72.34
2549;BME280;1284;53.520;10.248;2024-02-23T08:20:43;98382.22;;;9.34;71.93
2549;BME280;1284;53.520;10.248;2024-02-23T08:23:09;98377.13;;;9.43;71.08
2549;BME280;1284;53.520;10.248;2024-02-23T08:25:35;98378.00;;;9.36;70.80
2549;BME280;1284;53.520;10.248;2024-02-23T08:28:01;98378.25;;;9.45;71.01
2549;BME280;1284;53.520;10.248;2024-02-23T08:30:26;98378.94;;;9.53;70.48
2549;BME280;1284;53.520;10.248;2024-02-23T08:32:52;98389.38;;;9.77;70.18
2549;BME280;1284;53.520;10.248;2024-02-23T08:35:17;98389.09;;;9.95;68.94
2549;BME280;1284;53.520;10.248;2024-02-23T08:37:43;98390.00;;;10.15;66.30
2549;BME280;1284;53.520;10.248;2024-02-23T08:40:09;98397.78;;;10.06;66.26
2549;BME280;1284;53.520;10.248;2024-02-23T08:42:35;98399.72;;;10.32;66.31
2549;BME280;1284;53.520;10.248;2024-02-23T08:45:00;98410.59;;;10.48;65.79
2549;BME280;1284;53.520;10.248;2024-02-23T08:47:26;98410.47;;;10.55;65.67
2549;BME280;1284;53.520;10.248;2024-02-23T08:49:57;98414.88;;;10.46;66.12
2549;BME280;1284;53.520;10.248;2024-02-23T08:52:23;98417.63;;;10.42;66.67
2549;BME280;1284;53.520;10.248;2024-02-23T08:54:48;98417.34;;;10.60;65.28
2549;BME280;1284;53.520;10.248;2024-02-23T08:57:14;98424.28;;;10.57;64.42
2549;BME280;1284;53.520;10.248;2024-02-23T08:59:44;98425.41;;;10.37;64.78
2549;BME280;1284;53.520;10.248;2024-02-23T09:02:10;98426.00;;;10.48;65.78
2549;BME280;1284;53.520;10.248;2024-02-23T09:04:35;98447.09;;;10.49;65.45
2549;BME280;1284;53.520;10.248;2024-02-23T09:07:01;98435.88;;;10.54;65.36
2549;BME280;1284;53.520;10.248;2024-02-23T09:09:27;98458.00;;;10.65;64.03
2549;BME280;1284;53.520;10.248;2024-02-23T09:11:52;98444.91;;;10.18;64.85
2549;BME280;1284;53.520;10.248;2024-02-23T09:14:18;98451.28;;;10.27;63.83
2549;BME280;1284;53.520;10.248;2024-02-23T09:16:43;98440.00;;;10.09;65.14
2549;BME280;1284;53.520;10.248;2024-02-23T09:19:09;98449.56;;;10.40;65.32
2549;BME280;1284;53.520;10.248;2024-02-23T09:21:35;98464.97;;;10.36;63.90
2549;BME280;1284;53.520;10.248;2024-02-23T09:24:00;98463.47;;;10.35;64.48
2549;BME280;1284;53.520;10.248;2024-02-23T09:26:26;98467.78;;;10.29;63.87
2549;BME280;1284;53.520;10.248;2024-02-23T09:28:51;98473.78;;;10.14;64.99
2549;BME280;1284;53.520;10.248;2024-02-23T09:31:17;98482.97;;;10.16;64.96
2549;BME280;1284;53.520;10.248;2024-02-23T09:33:42;98489.38;;;10.22;64.27
2549;BME280;1284;53.520;10.248;2024-02-23T09:36:09;98485.75;;;10.36;64.59
2549;BME280;1284;53.520;10.248;2024-02-23T09:38:35;98486.81;;;10.42;63.15
2549;BME280;1284;53.520;10.248;2024-02-23T09:41:01;98505.69;;;10.38;63.14
2549;BME280;1284;53.520;10.248;2024-02-23T09:43:29;98503.66;;;10.19;64.80
2549;BME280;1284;53.520;10.248;2024-02-23T09:45:57;98510.47;;;10.27;63.67
2549;BME280;1284;53.520;10.248;2024-02-23T09:48:23;98510.25;;;10.15;63.68
2549;BME280;1284;53.520;10.248;2024-02-23T09:50:49;98506.25;;;10.26;62.43
2549;BME280;1284;53.520;10.248;2024-02-23T09:53:16;98517.47;;;10.21;63.26
2549;BME280;1284;53.520;10.248;2024-02-23T09:55:44;98513.94;;;10.28;64.08
2549;BME280;1284;53.520;10.248;2024-02-23T09:58:12;98514.47;;;10.42;63.65
2549;BME280;1284;53.520;10.248;2024-02-23T10:00:39;98521.66;;;10.52;62.45
2549;BME280;1284;53.520;10.248;2024-02-23T10:03:05;98526.13;;;10.62;62.28
2549;BME280;1284;53.520;10.248;2024-02-23T10:05:31;98530.03;;;10.58;62.08
2549;BME280;1284;53.520;10.248;2024-02-23T10:07:57;98537.59;;;10.66;62.66
2549;BME280;1284;53.520;10.248;2024-02-23T10:10:33;98539.09;;;10.67;62.29
2549;BME280;1284;53.520;10.248;2024-02-23T10:13:00;98545.00;;;10.59;61.54
2549;BME280;1284;53.520;10.248;2024-02-23T10:15:28;98537.59;;;10.66;61.37
2549;BME280;1284;53.520;10.248;2024-02-23T10:17:55;98559.94;;;10.63;60.56
2549;BME280;1284;53.520;10.248;2024-02-23T10:20:20;98563.69;;;10.69;60.99
2549;BME280;1284;53.520;10.248;2024-02-23T10:22:46;98578.41;;;10.61;61.13
2549;BME280;1284;53.520;10.248;2024-02-23T10:25:12;98570.50;;;10.77;60.00
2549;BME280;1284;53.520;10.248;2024-02-23T10:27:37;98571.38;;;10.94;60.20
2549;BME280;1284;53.520;10.248;2024-02-23T10:30:03;98575.56;;;10.99;60.54
2549;BME280;1284;53.520;10.248;2024-02-23T10:32:29;98583.00;;;11.14;59.64
2549;BME280;1284;53.520;10.248;2024-02-23T10:35:00;98564.72;;;11.02;60.02
2549;BME280;1284;53.520;10.248;2024-02-23T10:37:26;98576.38;;;10.96;60.66
2549;BME280;1284;53.520;10.248;2024-02-23T10:39:54;98587.13;;;10.96;58.47
2549;BME280;1284;53.520;10.248;2024-02-23T10:42:23;98592.38;;;11.06;57.67
2549;BME280;1284;53.520;10.248;2024-02-23T10:44:50;98594.41;;;10.99;57.24
2549;BME280;1284;53.520;10.248;2024-02-23T10:47:16;98596.44;;;10.91;57.39
2549;BME280;1284;53.520;10.248;2024-02-23T10:49:42;98588.50;;;11.07;58.31
2549;BME280;1284;53.520;10.248;2024-02-23T10:52:09;98588.19;;;11.28;57.06
2549;BME280;1284;53.520;10.248;2024-02-23T10:54:38;98589.91;;;11.15;56.50
2549;BME280;1284;53.520;10.248;2024-02-23T10:57:04;98593.84;;;11.11;57.50
2549;BME280;1284;53.520;10.248;2024-02-23T10:59:30;98584.06;;;11.20;56.87
2549;BME280;1284;53.520;10.248;2024-02-23T11:01:56;98591.75;;;11.22;56.13
2549;BME280;1284;53.520;10.248;2024-02-23T11:04:26;98610.75;;;11.11;55.64
2549;BME280;1284;53.520;10.248;2024-02-23T11:06:55;98598.34;;;11.17;55.80
2549;BME280;1284;53.520;10.248;2024-02-23T11:09:24;98602.53;;;11.22;56.21
2549;BME280;1284;53.520;10.248;2024-02-23T11:11:57;98604.16;;;11.39;55.72
2549;BME280;1284;53.520;10.248;2024-02-23T11:14:34;98603.56;;;11.28;56.23
2549;BME280;1284;53.520;10.248;2024-02-23T11:16:59;98599.81;;;11.22;56.78
2549;BME280;1284;53.520;10.248;2024-02-23T11:19:36;98600.66;;;11.19;56.35
2549;BME280;1284;53.520;10.248;2024-02-23T11:22:08;98589.97;;;11.12;57.06
2549;BME280;1284;53.520;10.248;2024-02-23T11:24:43;98587.50;;;11.21;57.11
2549;BME280;1284;53.520;10.248;2024-02-23T11:27:14;98593.84;;;11.34;57.32
2549;BME280;1284;53.520;10.248;2024-02-23T11:29:39;98596.44;;;11.41;57.89
2549;BME280;1284;53.520;10.248;2024-02-23T11:32:13;98588.69;;;11.66;56.59
2549;BME280;1284;53.520;10.248;2024-02-23T11:34:39;98599.34;;;11.73;56.46
2549;BME280;1284;53.520;10.248;2024-02-23T11:37:11;98598.75;;;11.85;55.73
2549;BME280;1284;53.520;10.248;2024-02-23T11:39:39;98605.53;;;11.93;55.29
2549;BME280;1284;53.520;10.248;2024-02-23T11:42:06;98594.41;;;11.91;55.61
2549;BME280;1284;53.520;10.248;2024-02-23T11:44:32;98593.25;;;11.92;55.64
2549;BME280;1284;53.520;10.248;2024-02-23T11:46:58;98597.88;;;11.92;55.34
2549;BME280;1284;53.520;10.248;2024-02-23T11:49:30;98589.97;;;11.81;55.42
2549;BME280;1284;53.520;10.248;2024-02-23T11:51:56;98592.44;;;11.72;56.28
2549;BME280;1284;53.520;10.248;2024-02-23T11:54:22;98589.16;;;11.61;56.37
2549;BME280;1284;53.520;10.248;2024-02-23T11:56:48;98584.47;;;11.65;56.68
2549;BME280;1284;53.520;10.248;2024-02-23T11:59:24;98581.38;;;11.66;56.66
2549;BME280;1284;53.520;10.248;2024-02-23T12:01:50;98581.31;;;11.70;57.36
2549;BME280;1284;53.520;10.248;2024-02-23T12:04:15;98586.44;;;11.84;56.73
2549;BME280;1284;53.520;10.248;2024-02-23T12:06:44;98584.28;;;11.75;54.59
2549;BME280;1284;53.520;10.248;2024-02-23T12:09:11;98587.97;;;11.62;54.72
2549;BME280;1284;53.520;10.248;2024-02-23T12:11:38;98583.06;;;11.57;53.63
2549;BME280;1284;53.520;10.248;2024-02-23T12:14:04;98589.50;;;11.63;53.98
2549;BME280;1284;53.520;10.248;2024-02-23T12:16:37;98587.13;;;11.68;54.84
2549;BME280;1284;53.520;10.248;2024-02-23T12:19:02;98592.78;;;11.51;55.15
2549;BME280;1284;53.520;10.248;2024-02-23T12:21:34;98598.25;;;11.47;55.59
2549;BME280;1284;53.520;10.248;2024-02-23T12:23:59;98596.19;;;11.55;55.74
2549;BME280;1284;53.520;10.248;2024-02-23T12:26:25;98603.78;;;11.60;56.16
2549;BME280;1284;53.520;10.248;2024-02-23T12:28:50;98597.13;;;11.68;55.22
2549;BME280;1284;53.520;10.248;2024-02-23T12:31:16;98611.31;;;11.72;54.74
2549;BME280;1284;53.520;10.248;2024-02-23T12:33:48;98603.78;;;11.60;54.58
2549;BME280;1284;53.520;10.248;2024-02-23T12:36:15;98609.31;;;11.30;55.32
2549;BME280;1284;53.520;10.248;2024-02-23T12:38:40;98607.03;;;11.51;54.49
2549;BME280;1284;53.520;10.248;2024-02-23T12:41:06;98606.84;;;11.39;54.25
2549;BME280;1284;53.520;10.248;2024-02-23T12:43:31;98616.34;;;11.47;53.75
2549;BME280;1284;53.520;10.248;2024-02-23T12:45:57;98607.91;;;11.45;52.75
2549;BME280;1284;53.520;10.248;2024-02-23T12:48:23;98593.56;;;11.51;52.84
2549;BME280;1284;53.520;10.248;2024-02-23T12:50:49;98598.31;;;11.67;52.35
2549;BME280;1284;53.520;10.248;2024-02-23T12:56:10;98609.59;;;11.82;52.81
2549;BME280;1284;53.520;10.248;2024-02-23T12:58:41;98612.84;;;11.73;52.80
2549;BME280;1284;53.520;10.248;2024-02-23T13:01:07;98615.22;;;11.91;51.68
2549;BME280;1284;53.520;10.248;2024-02-23T13:03:34;98622.59;;;11.87;51.83
2549;BME280;1284;53.520;10.248;2024-02-23T13:06:00;98617.84;;;11.48;52.81
2549;BME280;1284;53.520;10.248;2024-02-23T13:08:26;98618.47;;;11.59;52.99
2549;BME280;1284;53.520;10.248;2024-02-23T13:10:53;98625.28;;;11.63;52.92
2549;BME280;1284;53.520;10.248;2024-02-23T13:13:19;98616.13;;;11.61;53.85
2549;BME280;1284;53.520;10.248;2024-02-23T13:15:50;98622.19;;;11.68;54.05